createdAt,value
2023-05-05T00:02:07.567Z,13.20
2023-05-05T00:04:36.508Z,13.10
2023-05-05T00:07:03.247Z,13.10
2023-05-05T00:09:30.046Z,13.00
2023-05-05T00:11:56.876Z,12.90
2023-05-05T00:14:23.666Z,12.90
2023-05-05T00:16:52.926Z,12.90
2023-05-05T00:19:19.755Z,12.90
2023-05-05T00:21:49.047Z,13.00
2023-05-05T00:24:15.870Z,13.00
2023-05-05T00:26:42.661Z,13.00
2023-05-05T00:29:09.504Z,13.00
2023-05-05T00:31:38.919Z,13.00
2023-05-05T00:34:06.421Z,13.00
2023-05-05T00:36:33.270Z,13.00
2023-05-05T00:39:00.023Z,13.00
2023-05-05T00:41:26.908Z,12.90
2023-05-05T00:43:56.093Z,12.90
2023-05-05T00:46:26.761Z,12.90
2023-05-05T00:48:53.772Z,12.90
2023-05-05T00:51:20.887Z,12.90
2023-05-05T00:53:50.307Z,12.90
2023-05-05T00:56:17.324Z,12.90
2023-05-05T00:58:44.453Z,12.90
2023-05-05T01:01:11.950Z,12.90
2023-05-05T01:03:39.218Z,13.00
2023-05-05T01:06:15.342Z,12.90
2023-05-05T01:09:01.761Z,13.00
2023-05-05T01:11:42.677Z,12.90
2023-05-05T01:14:17.046Z,13.00
2023-05-05T01:17:12.810Z,12.90
2023-05-05T01:20:01.232Z,13.00
2023-05-05T01:22:33.421Z,13.00
2023-05-05T01:25:21.880Z,13.00
2023-05-05T01:28:09.494Z,13.00
2023-05-05T01:31:01.467Z,12.90
2023-05-05T01:33:32.118Z,12.90
2023-05-05T01:36:06.528Z,12.90
2023-05-05T01:38:38.197Z,12.90
2023-05-05T01:41:28.878Z,12.90
2023-05-05T01:43:55.653Z,12.90
2023-05-05T01:46:24.524Z,12.90
2023-05-05T01:48:51.771Z,12.80
2023-05-05T01:51:19.260Z,12.80
2023-05-05T01:53:47.317Z,12.80
2023-05-05T01:56:15.453Z,12.80
2023-05-05T01:58:42.974Z,12.80
2023-05-05T02:01:10.361Z,12.80
2023-05-05T02:06:07.376Z,12.80
2023-05-05T02:08:35.928Z,12.80
2023-05-05T02:11:05.263Z,12.80
2023-05-05T02:13:32.679Z,12.70
2023-05-05T02:15:59.529Z,12.70
2023-05-05T02:18:27.072Z,12.70
2023-05-05T02:20:53.923Z,12.80
2023-05-05T02:23:25.789Z,12.80
2023-05-05T02:25:55.834Z,12.80
2023-05-05T02:28:27.470Z,12.80
2023-05-05T02:30:59.983Z,12.80
2023-05-05T02:33:27.025Z,12.70
2023-05-05T02:35:54.307Z,12.70
2023-05-05T02:38:23.867Z,12.70
2023-05-05T02:40:50.608Z,12.70
2023-05-05T02:43:19.683Z,12.70
2023-05-05T02:48:13.797Z,12.80
2023-05-05T02:50:40.547Z,12.80
2023-05-05T02:53:07.471Z,12.80
2023-05-05T02:56:02.020Z,12.80
2023-05-05T02:58:33.383Z,12.80
2023-05-05T03:01:17.030Z,12.70
2023-05-05T03:03:50.932Z,12.80
2023-05-05T03:09:15.527Z,12.80
2023-05-05T03:11:54.316Z,12.80
2023-05-05T03:14:23.184Z,12.80
2023-05-05T03:16:52.119Z,12.80
2023-05-05T03:19:18.996Z,12.80
2023-05-05T03:21:45.759Z,12.80
2023-05-05T03:24:16.429Z,12.80
2023-05-05T03:26:46.398Z,12.80
2023-05-05T03:29:13.854Z,12.80
2023-05-05T03:31:40.961Z,12.90
2023-05-05T03:34:07.944Z,12.90
2023-05-05T03:36:38.032Z,12.90
2023-05-05T03:39:04.925Z,12.90
2023-05-05T03:41:34.064Z,12.80
2023-05-05T03:44:03.388Z,12.80
2023-05-05T03:46:30.192Z,12.80
2023-05-05T03:48:59.779Z,12.80
2023-05-05T03:51:26.906Z,12.80
2023-05-05T03:53:53.706Z,12.80
2023-05-05T03:56:20.500Z,12.80
2023-05-05T03:58:47.262Z,12.80
2023-05-05T04:01:14.113Z,12.80
2023-05-05T04:03:41.003Z,12.90
2023-05-05T04:06:10.002Z,12.90
2023-05-05T04:08:36.748Z,12.90
2023-05-05T04:11:03.640Z,12.90
2023-05-05T04:13:30.435Z,13.00
2023-05-05T04:15:57.243Z,13.00
2023-05-05T04:18:24.066Z,13.10
2023-05-05T04:20:50.928Z,13.10
2023-05-05T04:23:17.741Z,13.10
2023-05-05T04:25:47.481Z,13.10
2023-05-05T04:28:14.301Z,13.00
2023-05-05T04:30:43.226Z,13.10
2023-05-05T04:33:10.179Z,13.10
2023-05-05T04:35:37.060Z,13.00
2023-05-05T04:40:33.804Z,13.20
2023-05-05T04:43:00.559Z,13.20
2023-05-05T04:45:27.326Z,13.20
2023-05-05T04:47:54.119Z,13.20
2023-05-05T04:50:25.530Z,13.30
2023-05-05T04:52:52.749Z,13.40
2023-05-05T04:55:19.712Z,13.40
2023-05-05T04:57:46.540Z,13.40
2023-05-05T05:00:13.746Z,13.40
2023-05-05T05:02:41.615Z,13.40
2023-05-05T05:05:09.543Z,13.50
2023-05-05T05:07:36.361Z,13.50
2023-05-05T05:10:03.340Z,13.50
2023-05-05T05:12:32.638Z,13.50
2023-05-05T05:14:59.452Z,13.40
2023-05-05T05:17:26.942Z,13.40
2023-05-05T05:19:56.976Z,13.40
2023-05-05T05:22:23.779Z,13.40
2023-05-05T05:24:52.940Z,13.40
2023-05-05T05:27:19.708Z,13.40
2023-05-05T05:32:13.756Z,13.30
2023-05-05T05:34:45.552Z,13.20
2023-05-05T05:37:12.331Z,13.20
2023-05-05T05:39:41.259Z,13.40
2023-05-05T05:42:11.649Z,13.60
2023-05-05T05:44:41.297Z,13.70
2023-05-05T05:47:10.237Z,13.90
2023-05-05T05:49:37.002Z,14.20
2023-05-05T05:52:08.521Z,14.60
2023-05-05T05:54:35.681Z,14.80
2023-05-05T05:57:07.965Z,14.90
2023-05-05T05:59:34.729Z,14.80
2023-05-05T06:02:01.711Z,14.70
2023-05-05T06:04:28.673Z,14.60
2023-05-05T06:06:56.238Z,14.50
2023-05-05T06:09:23.027Z,14.50
2023-05-05T06:11:49.974Z,14.80
2023-05-05T06:14:18.177Z,15.40
2023-05-05T06:16:46.271Z,16.00
2023-05-05T06:19:15.619Z,16.20
2023-05-05T06:21:44.560Z,16.20
2023-05-05T06:24:13.814Z,16.20
2023-05-05T06:26:40.590Z,16.00
2023-05-05T06:29:11.696Z,15.80
2023-05-05T06:31:39.062Z,15.60
2023-05-05T06:34:08.337Z,15.40
2023-05-05T06:36:35.193Z,15.30
2023-05-05T06:39:01.986Z,15.10
2023-05-05T06:41:28.784Z,15.10
2023-05-05T06:43:57.937Z,15.00
2023-05-05T06:48:54.981Z,14.90
2023-05-05T06:51:27.683Z,15.00
2023-05-05T06:53:54.452Z,15.00
2023-05-05T06:56:21.248Z,14.90
2023-05-05T06:58:50.489Z,14.90
2023-05-05T07:01:17.293Z,14.90
2023-05-05T07:03:46.866Z,14.90
2023-05-05T07:06:13.773Z,14.80
2023-05-05T07:08:42.783Z,14.80
2023-05-05T07:11:09.529Z,14.90
2023-05-05T07:13:38.420Z,14.90
2023-05-05T07:16:05.532Z,14.90
2023-05-05T07:18:32.326Z,15.00
2023-05-05T07:20:59.096Z,15.10
2023-05-05T07:23:28.401Z,15.10
2023-05-05T07:25:55.295Z,15.10
2023-05-05T07:28:22.450Z,15.20
2023-05-05T07:30:52.129Z,15.20
2023-05-05T07:33:21.051Z,15.20
2023-05-05T07:35:47.846Z,15.30
2023-05-05T07:38:14.591Z,15.30
2023-05-05T07:40:41.355Z,15.30
2023-05-05T07:43:08.106Z,15.30
2023-05-05T07:45:34.852Z,15.40
2023-05-05T07:48:06.298Z,15.40
2023-05-05T07:50:33.107Z,15.40
2023-05-05T07:53:10.946Z,15.40
2023-05-05T07:55:41.498Z,15.40
2023-05-05T07:58:11.196Z,15.50
2023-05-05T08:00:38.527Z,15.50
2023-05-05T08:03:05.475Z,15.50
2023-05-05T08:05:32.728Z,15.60
2023-05-05T08:08:02.029Z,15.60
2023-05-05T08:10:28.836Z,15.60
2023-05-05T08:12:55.799Z,15.70
2023-05-05T08:15:22.744Z,15.70
2023-05-05T08:17:51.158Z,15.70
2023-05-05T08:20:18.735Z,15.70
2023-05-05T08:22:48.042Z,15.80
2023-05-05T08:25:14.841Z,15.80
2023-05-05T08:27:42.271Z,15.70
2023-05-05T08:30:12.012Z,15.80
2023-05-05T08:32:41.317Z,15.80
2023-05-05T08:35:13.357Z,15.80
2023-05-05T08:37:40.530Z,15.80
2023-05-05T08:40:07.992Z,15.90
2023-05-05T08:42:39.075Z,15.90
2023-05-05T08:45:08.137Z,16.00
2023-05-05T08:47:39.029Z,16.00
2023-05-05T08:50:06.494Z,16.00
2023-05-05T08:52:42.040Z,16.00
2023-05-05T08:55:11.180Z,16.10
2023-05-05T08:57:56.693Z,16.10
2023-05-05T09:00:27.203Z,16.10
2023-05-05T09:02:56.452Z,16.10
2023-05-05T09:05:23.921Z,16.10
2023-05-05T09:07:51.080Z,16.10
2023-05-05T09:10:17.981Z,16.20
2023-05-05T09:12:44.829Z,16.30
2023-05-05T09:15:15.115Z,16.50
2023-05-05T09:17:42.180Z,16.50
2023-05-05T09:20:10.586Z,16.70
2023-05-05T09:22:41.381Z,16.80
2023-05-05T09:25:14.628Z,16.90
2023-05-05T09:27:43.246Z,16.90
2023-05-05T09:30:12.190Z,17.00
2023-05-05T09:32:49.149Z,17.10
2023-05-05T09:35:16.566Z,17.20
2023-05-05T09:37:45.859Z,17.20
2023-05-05T09:40:18.855Z,17.20
2023-05-05T09:42:45.774Z,17.20
2023-05-05T09:45:18.645Z,17.30
2023-05-05T09:47:46.249Z,17.40
2023-05-05T09:50:16.139Z,17.40
2023-05-05T09:52:43.393Z,17.40
2023-05-05T09:55:19.360Z,17.40
2023-05-05T09:57:47.500Z,17.40
2023-05-05T10:00:14.837Z,17.50
2023-05-05T10:02:41.978Z,17.50
2023-05-05T10:05:13.399Z,17.60
2023-05-05T10:07:44.222Z,17.80
2023-05-05T10:10:16.191Z,17.80
2023-05-05T10:12:43.302Z,17.80
2023-05-05T10:15:11.565Z,17.80
2023-05-05T10:18:06.160Z,17.80
2023-05-05T10:20:36.269Z,17.80
2023-05-05T10:23:05.648Z,17.80
2023-05-05T10:25:44.812Z,17.80
2023-05-05T10:28:16.799Z,17.90
2023-05-05T10:30:44.317Z,18.10
2023-05-05T10:35:52.791Z,18.20
2023-05-05T10:38:19.533Z,18.20
2023-05-05T10:40:49.089Z,18.40
2023-05-05T10:43:20.580Z,18.40
2023-05-05T10:45:50.033Z,18.30
2023-05-05T10:48:21.359Z,18.40
2023-05-05T10:50:51.325Z,18.40
2023-05-05T10:53:29.387Z,18.50
2023-05-05T10:56:14.453Z,18.50
2023-05-05T10:58:58.264Z,18.30
2023-05-05T11:01:31.185Z,18.30
2023-05-05T11:04:17.969Z,18.20
2023-05-05T11:07:13.402Z,18.10
2023-05-05T11:09:57.999Z,18.20
2023-05-05T11:12:24.913Z,18.70
2023-05-05T11:15:29.054Z,19.40
2023-05-05T11:17:56.261Z,20.50
2023-05-05T11:20:45.338Z,21.70
2023-05-05T11:23:13.356Z,22.20
2023-05-05T11:25:44.639Z,22.60
2023-05-05T11:28:12.069Z,22.90
2023-05-05T11:31:17.326Z,23.50
2023-05-05T11:33:44.716Z,24.70
2023-05-05T11:36:12.898Z,25.30
2023-05-05T11:38:57.758Z,25.70
2023-05-05T11:41:27.494Z,25.40
2023-05-05T11:44:13.812Z,25.00
2023-05-05T11:47:06.640Z,24.40
2023-05-05T11:49:39.295Z,23.70
2023-05-05T11:52:14.756Z,23.10
2023-05-05T11:54:49.158Z,22.70
2023-05-05T11:57:29.718Z,22.30
2023-05-05T12:00:08.061Z,21.60
2023-05-05T12:02:35.295Z,21.10
2023-05-05T12:05:02.252Z,20.50
2023-05-05T12:07:30.960Z,19.90
2023-05-05T12:09:57.749Z,19.50
2023-05-05T12:12:40.190Z,19.30
2023-05-05T12:15:07.978Z,19.10
2023-05-05T12:17:43.846Z,19.00
2023-05-05T12:20:11.780Z,19.00
2023-05-05T12:22:38.941Z,19.00
2023-05-05T12:25:06.896Z,18.90
2023-05-05T12:27:35.305Z,18.90
2023-05-05T12:30:15.000Z,18.80
2023-05-05T12:32:42.326Z,18.70
2023-05-05T12:37:43.607Z,18.80
2023-05-05T12:40:46.636Z,18.80
2023-05-05T12:43:34.433Z,18.60
2023-05-05T12:46:02.607Z,18.50
2023-05-05T12:48:29.386Z,18.40
2023-05-05T12:51:09.670Z,18.30
2023-05-05T12:53:36.473Z,18.20
2023-05-05T12:56:03.288Z,18.10
2023-05-05T12:58:46.218Z,18.00
2023-05-05T13:01:13.009Z,17.90
2023-05-05T13:03:39.909Z,17.80
2023-05-05T13:06:20.739Z,17.90
2023-05-05T13:08:48.229Z,17.90
2023-05-05T13:11:15.040Z,18.00
2023-05-05T13:13:42.272Z,17.90
2023-05-05T13:16:09.064Z,17.90
2023-05-05T13:18:45.749Z,18.00
2023-05-05T13:21:15.124Z,17.90
2023-05-05T13:23:45.586Z,17.80
2023-05-05T13:26:12.809Z,17.80
2023-05-05T13:28:40.260Z,17.80
2023-05-05T13:31:09.689Z,17.80
2023-05-05T13:33:36.443Z,17.80
2023-05-05T13:36:05.789Z,17.60
2023-05-05T13:38:36.500Z,17.60
2023-05-05T13:41:05.732Z,17.60
2023-05-05T13:43:32.491Z,17.70
2023-05-05T13:46:12.270Z,17.90
2023-05-05T13:48:46.072Z,17.90
2023-05-05T13:51:15.851Z,18.00
2023-05-05T13:53:44.098Z,18.00
2023-05-05T13:56:10.974Z,18.00
2023-05-05T13:58:38.009Z,17.90
2023-05-05T14:01:05.082Z,17.70
2023-05-05T14:03:31.952Z,17.50
2023-05-05T14:06:00.854Z,17.40
2023-05-05T14:08:29.771Z,17.20
2023-05-05T14:10:58.717Z,17.10
2023-05-05T14:13:25.473Z,17.00
2023-05-05T14:15:52.828Z,16.90
2023-05-05T14:18:19.618Z,16.80
2023-05-05T14:20:51.179Z,16.80
2023-05-05T14:23:17.939Z,16.90
2023-05-05T14:25:44.687Z,17.00
2023-05-05T14:28:11.461Z,17.20
2023-05-05T14:30:40.902Z,17.50
2023-05-05T14:33:07.782Z,17.80
2023-05-05T14:35:36.808Z,18.00
2023-05-05T14:38:03.588Z,18.70
2023-05-05T14:40:33.773Z,19.60
2023-05-05T14:43:02.719Z,19.70
2023-05-05T14:45:29.702Z,19.20
2023-05-05T14:47:56.586Z,18.80
2023-05-05T14:50:23.574Z,18.20
2023-05-05T14:52:50.447Z,17.90
2023-05-05T14:55:17.240Z,17.50
2023-05-05T14:57:46.229Z,17.20
2023-05-05T15:00:13.511Z,17.00
2023-05-05T15:02:42.714Z,16.80
2023-05-05T15:05:10.686Z,16.70
2023-05-05T15:07:37.661Z,16.50
2023-05-05T15:10:07.618Z,16.50
2023-05-05T15:12:34.540Z,16.30
2023-05-05T15:15:03.727Z,16.20
2023-05-05T15:17:31.846Z,16.20
2023-05-05T15:20:01.463Z,16.20
2023-05-05T15:22:28.208Z,16.10
2023-05-05T15:24:54.965Z,16.00
2023-05-05T15:27:21.804Z,15.90
2023-05-05T15:29:48.863Z,15.90
2023-05-05T15:32:15.668Z,15.80
2023-05-05T15:34:44.839Z,15.70
2023-05-05T15:37:11.592Z,15.70
2023-05-05T15:39:38.385Z,15.70
2023-05-05T15:42:05.352Z,15.50
2023-05-05T15:44:32.187Z,15.50
2023-05-05T15:47:01.235Z,15.50
2023-05-05T15:49:28.068Z,15.60
2023-05-05T15:51:54.860Z,15.50
2023-05-05T15:54:21.632Z,15.50
2023-05-05T15:56:48.465Z,15.50
2023-05-05T15:59:15.375Z,15.50
2023-05-05T16:01:42.239Z,15.50
2023-05-05T16:04:12.125Z,15.50
2023-05-05T16:06:38.836Z,15.50
2023-05-05T16:09:05.573Z,15.50
2023-05-05T16:11:32.512Z,15.50
2023-05-05T16:13:59.281Z,15.40
2023-05-05T16:16:26.110Z,15.30
2023-05-05T16:18:54.985Z,15.30
2023-05-05T16:21:21.774Z,15.30
2023-05-05T16:23:48.524Z,15.20
2023-05-05T16:26:17.650Z,15.20
2023-05-05T16:28:44.446Z,15.20
2023-05-05T16:31:11.301Z,15.20
2023-05-05T16:33:41.380Z,15.10
2023-05-05T16:36:12.505Z,15.10
2023-05-05T16:38:40.075Z,15.10
2023-05-05T16:43:35.900Z,15.00
2023-05-05T16:46:06.153Z,15.00
2023-05-05T16:48:32.958Z,15.00
2023-05-05T16:51:02.515Z,14.90
2023-05-05T16:53:32.305Z,14.80
2023-05-05T16:55:59.250Z,14.80
2023-05-05T16:58:26.053Z,14.70
2023-05-05T17:00:52.970Z,14.50
2023-05-05T17:03:20.395Z,14.50
2023-05-05T17:05:49.741Z,14.60
2023-05-05T17:08:18.889Z,14.50
2023-05-05T17:10:45.807Z,14.40
2023-05-05T17:13:17.395Z,14.40
2023-05-05T17:15:46.883Z,14.40
2023-05-05T17:18:13.679Z,14.30
2023-05-05T17:20:42.933Z,14.30
2023-05-05T17:23:11.812Z,14.30
2023-05-05T17:25:38.597Z,14.30
2023-05-05T17:28:07.725Z,14.30
2023-05-05T17:30:37.669Z,14.20
2023-05-05T17:33:04.565Z,14.20
2023-05-05T17:35:31.706Z,14.10
2023-05-05T17:37:58.499Z,14.10
2023-05-05T17:40:27.715Z,14.10
2023-05-05T17:42:54.551Z,14.00
2023-05-05T17:45:21.361Z,14.00
2023-05-05T17:47:48.133Z,14.00
2023-05-05T17:50:14.983Z,14.00
2023-05-05T17:52:45.105Z,14.00
2023-05-05T17:55:14.139Z,14.00
2023-05-05T17:57:40.901Z,14.00
2023-05-05T18:00:08.988Z,14.00
2023-05-05T18:02:37.124Z,13.90
2023-05-05T18:05:04.468Z,13.80
2023-05-05T18:07:31.828Z,13.80
2023-05-05T18:09:58.629Z,13.80
2023-05-05T18:12:26.010Z,13.70
2023-05-05T18:14:52.794Z,13.70
2023-05-05T18:17:21.802Z,13.70
2023-05-05T18:19:49.330Z,13.60
2023-05-05T18:22:18.651Z,13.60
2023-05-05T18:24:46.610Z,13.50
2023-05-05T18:27:13.402Z,13.50
2023-05-05T18:29:40.255Z,13.50
2023-05-05T18:32:09.470Z,13.50
2023-05-05T18:34:38.351Z,13.50
2023-05-05T18:37:05.188Z,13.50
2023-05-05T18:42:03.395Z,13.40
2023-05-05T18:44:32.706Z,13.50
2023-05-05T18:46:59.914Z,13.40
2023-05-05T18:49:29.493Z,13.40
2023-05-05T18:51:58.448Z,13.40
2023-05-05T18:54:25.799Z,13.30
2023-05-05T18:56:52.628Z,13.20
2023-05-05T18:59:19.419Z,13.20
2023-05-05T19:01:46.601Z,13.20
2023-05-05T19:04:26.816Z,13.20
2023-05-05T19:06:59.566Z,13.20
2023-05-05T19:09:26.442Z,13.20
2023-05-05T19:11:53.216Z,13.20
2023-05-05T19:14:20.015Z,13.10
2023-05-05T19:16:46.821Z,13.10
2023-05-05T19:19:16.219Z,13.00
2023-05-05T19:21:43.143Z,12.90
2023-05-05T19:24:12.487Z,12.90
2023-05-05T19:26:46.729Z,12.80
2023-05-05T19:29:13.485Z,12.80
2023-05-05T19:31:42.444Z,12.70
2023-05-05T19:34:09.168Z,12.70
2023-05-05T19:36:40.504Z,12.70
2023-05-05T19:39:09.730Z,12.70
2023-05-05T19:41:38.902Z,12.70
2023-05-05T19:44:08.338Z,12.60
2023-05-05T19:46:35.263Z,12.60
2023-05-05T19:49:04.315Z,12.60
2023-05-05T19:51:31.675Z,12.60
2023-05-05T19:54:00.893Z,12.50
2023-05-05T19:56:32.406Z,12.50
2023-05-05T19:59:01.494Z,12.50
2023-05-05T20:01:30.951Z,12.40
2023-05-05T20:03:58.001Z,12.40
2023-05-05T20:06:24.866Z,12.40
2023-05-05T20:08:52.321Z,12.40
2023-05-05T20:11:20.136Z,12.40
2023-05-05T20:13:47.334Z,12.40
2023-05-05T20:16:14.858Z,12.40
2023-05-05T20:18:41.740Z,12.40
2023-05-05T20:21:08.489Z,12.40
2023-05-05T20:23:35.499Z,12.30
2023-05-05T20:26:02.540Z,12.20
2023-05-05T20:28:31.442Z,12.20
2023-05-05T20:30:58.389Z,12.10
2023-05-05T20:33:27.254Z,12.10
2023-05-05T20:35:58.586Z,12.10
2023-05-05T20:38:25.422Z,12.10
2023-05-05T20:40:52.452Z,12.10
2023-05-05T20:43:19.410Z,12.10
2023-05-05T20:45:46.707Z,12.00
2023-05-05T20:48:16.156Z,12.00
2023-05-05T20:50:42.990Z,11.90
2023-05-05T20:53:13.862Z,11.90
2023-05-05T20:58:08.043Z,12.00
2023-05-05T21:00:34.989Z,11.90
2023-05-05T21:03:02.850Z,11.90
2023-05-05T21:05:30.153Z,11.80
2023-05-05T21:07:58.363Z,11.80
2023-05-05T21:10:26.927Z,11.90
2023-05-05T21:12:55.971Z,11.90
2023-05-05T21:15:22.982Z,11.80
2023-05-05T21:17:49.885Z,11.80
2023-05-05T21:20:19.058Z,11.80
2023-05-05T21:22:48.210Z,11.80
2023-05-05T21:25:23.709Z,11.70
2023-05-05T21:27:55.188Z,11.70
2023-05-05T21:30:24.423Z,11.70
2023-05-05T21:32:52.222Z,11.70
2023-05-05T21:35:19.135Z,11.70
2023-05-05T21:37:45.969Z,11.70
2023-05-05T21:40:14.070Z,11.70
2023-05-05T21:42:41.873Z,11.70
2023-05-05T21:45:10.039Z,11.70
2023-05-05T21:47:36.905Z,11.70
2023-05-05T21:50:03.850Z,11.80
2023-05-05T21:52:30.660Z,11.70
2023-05-05T21:54:59.693Z,11.70
2023-05-05T21:57:26.668Z,11.70
2023-05-05T21:59:55.787Z,11.70
2023-05-05T22:02:22.661Z,11.70
2023-05-05T22:04:51.714Z,11.60
2023-05-05T22:07:18.510Z,11.60
2023-05-05T22:09:45.973Z,11.50
2023-05-05T22:12:13.073Z,11.50
2023-05-05T22:14:39.811Z,11.40
2023-05-05T22:17:06.623Z,11.40
2023-05-05T22:19:35.434Z,11.40
2023-05-05T22:22:04.488Z,11.40
2023-05-05T22:24:31.314Z,11.40
2023-05-05T22:26:58.356Z,11.30
2023-05-05T22:29:25.353Z,11.20
2023-05-05T22:31:52.233Z,11.30
2023-05-05T22:34:20.506Z,11.30
2023-05-05T22:36:47.543Z,11.30
2023-05-05T22:39:14.325Z,11.20
2023-05-05T22:41:41.133Z,11.20
2023-05-05T22:44:10.507Z,11.20
2023-05-05T22:46:37.287Z,11.10
2023-05-05T22:49:04.273Z,11.10
2023-05-05T22:51:31.811Z,11.10
2023-05-05T22:54:00.975Z,11.00
2023-05-05T22:56:27.752Z,11.00
2023-05-05T22:58:56.989Z,10.90
2023-05-05T23:01:24.162Z,10.90
2023-05-05T23:03:53.219Z,10.90
2023-05-05T23:06:22.286Z,10.90
2023-05-05T23:08:49.307Z,10.80
2023-05-05T23:11:16.206Z,10.90
2023-05-05T23:13:43.085Z,10.90
2023-05-05T23:16:11.976Z,10.80
2023-05-05T23:18:38.948Z,10.90
2023-05-05T23:21:05.781Z,10.80
2023-05-05T23:23:32.559Z,10.80
2023-05-05T23:25:59.306Z,10.80
2023-05-05T23:28:28.661Z,10.70
2023-05-05T23:30:55.624Z,10.70
2023-05-05T23:33:22.494Z,10.60
2023-05-05T23:35:49.262Z,10.60
2023-05-05T23:38:16.213Z,10.60
2023-05-05T23:40:42.983Z,10.50
2023-05-05T23:43:11.953Z,10.50
2023-05-05T23:45:38.949Z,10.50
2023-05-05T23:48:10.509Z,10.50
2023-05-05T23:50:39.822Z,10.50
2023-05-05T23:53:06.564Z,10.40
2023-05-05T23:55:33.308Z,10.40
2023-05-05T23:58:00.120Z,10.40
